Time;durP1;ratioP1;P1;durP2;ratioP2;P2;SDS_P1;SDS_P2;PMS_P1;PMS_P2;Temp;Humidity;BMP_temperature;BMP_pressure;BME280_temperature;BME280_humidity;BME280_pressure;Samples;Min_cycle;Max_cycle;Signal;HPM_P1;HPM_P2
2023/03/24 00:00:00;;;;;;;;;;;11.20;99.90;;;;;;5132501;27;19911;-64
2023/03/24 00:02:27;;;;;;;;;;;11.30;99.90;;;;;;5122104;27;19911;-64
2023/03/24 00:04:57;;;;;;;;;;;11.30;99.90;;;;;;5131580;27;20271;-64
2023/03/24 00:07:23;;;;;;;;;;;11.30;99.90;;;;;;5122061;27;19958;-64
2023/03/24 00:09:49;;;;;;;;;;;11.30;99.90;;;;;;5129116;27;19911;-64
2023/03/24 00:12:17;;;;;;;;;;;11.30;99.90;;;;;;5123251;27;19919;-64
2023/03/24 00:14:45;;;;;;;;;;;11.30;99.90;;;;;;5127377;27;19915;-63
2023/03/24 00:17:12;;;;;;;;;;;11.20;99.90;;;;;;5129244;27;19930;-64
2023/03/24 00:19:38;;;;;;;;;;;11.30;99.90;;;;;;5133037;27;20374;-64
2023/03/24 00:22:05;;;;;;;;;;;11.20;99.90;;;;;;5125931;27;19912;-65
2023/03/24 00:24:32;;;;;;;;;;;11.30;99.90;;;;;;5132754;27;19915;-63
2023/03/24 00:26:57;;;;;;;;;;;11.30;99.90;;;;;;5118843;27;19919;-64
2023/03/24 00:29:24;;;;;;;;;;;11.30;99.90;;;;;;5119435;27;19912;-64
2023/03/24 00:31:51;;;;;;;;;;;11.30;99.90;;;;;;5118204;27;19916;-64
2023/03/24 00:34:20;;;;;;;;;;;11.30;99.90;;;;;;5127096;27;19912;-64
2023/03/24 00:36:47;;;;;;;;;;;11.30;99.90;;;;;;5130829;27;20379;-63
2023/03/24 00:39:14;;;;;;;;;;;11.20;99.90;;;;;;5125196;27;19911;-64
2023/03/24 00:41:43;;;;;;;;;;;11.20;99.90;;;;;;5122947;27;19912;-66
2023/03/24 00:44:16;;;;;;;;;;;11.20;99.90;;;;;;5130801;27;19932;-63
2023/03/24 00:46:54;;;;;;;;;;;11.20;99.90;;;;;;5119294;27;20358;-63
2023/03/24 00:49:24;;;;;;;;;;;11.20;99.90;;;;;;5120875;27;19980;-64
2023/03/24 00:51:50;;;;;;;;;;;11.20;99.90;;;;;;5109048;27;20343;-64
2023/03/24 00:54:20;;;;;;;;;;;11.20;99.90;;;;;;5134902;27;19915;-65
2023/03/24 00:56:48;;;;;;;;;;;11.20;99.90;;;;;;5124749;27;20355;-64
2023/03/24 00:59:14;;;;;;;;;;;11.20;99.90;;;;;;5126884;27;19911;-64
2023/03/24 01:01:39;;;;;;;;;;;11.20;99.90;;;;;;5122868;27;19911;-63
2023/03/24 01:04:05;;;;;;;;;;;11.20;99.90;;;;;;5119091;27;19934;-64
2023/03/24 01:06:31;;;;;;;;;;;11.10;99.90;;;;;;5126546;27;19951;-65
2023/03/24 01:08:56;;;;;;;;;;;11.20;99.90;;;;;;5114595;27;20298;-65
2023/03/24 01:11:24;;;;;;;;;;;11.10;99.90;;;;;;5118198;27;19915;-65
2023/03/24 01:13:51;;;;;;;;;;;11.10;99.90;;;;;;5113690;27;19916;-63
2023/03/24 01:16:17;;;;;;;;;;;11.00;99.90;;;;;;5127715;27;19959;-63
2023/03/24 01:18:42;;;;;;;;;;;10.90;99.90;;;;;;5118719;27;19951;-65
2023/03/24 01:21:09;;;;;;;;;;;10.90;99.90;;;;;;5120331;27;20231;-65
2023/03/24 01:23:35;;;;;;;;;;;10.80;99.90;;;;;;5130206;27;19911;-64
2023/03/24 01:26:06;;;;;;;;;;;10.70;99.90;;;;;;5134973;27;20013;-65
2023/03/24 01:28:32;;;;;;;;;;;10.60;99.90;;;;;;5128172;27;19912;-65
2023/03/24 01:30:57;;;;;;;;;;;10.60;99.90;;;;;;5115555;28;19957;-65
2023/03/24 01:33:23;;;;;;;;;;;10.50;99.90;;;;;;5117277;28;19911;-64
2023/03/24 01:35:50;;;;;;;;;;;10.60;99.90;;;;;;5118775;28;20432;-64
2023/03/24 01:38:15;;;;;;;;;;;10.60;99.90;;;;;;5131132;27;19911;-63
2023/03/24 01:40:42;;;;;;;;;;;10.60;99.90;;;;;;5121438;28;19916;-64
2023/03/24 01:43:19;;;;;;;;;;;10.60;99.90;;;;;;5123762;28;19912;-64
2023/03/24 01:45:54;;;;;;;;;;;10.60;99.90;;;;;;5133918;27;20393;-65
2023/03/24 01:48:39;;;;;;;;;;;10.60;99.90;;;;;;5137029;27;19911;-65
2023/03/24 01:51:08;;;;;;;;;;;10.50;99.90;;;;;;5126690;27;20262;-65
2023/03/24 01:53:36;;;;;;;;;;;10.40;99.90;;;;;;5128027;27;19927;-65
2023/03/24 01:56:04;;;;;;;;;;;10.40;99.90;;;;;;5128642;27;19920;-64
2023/03/24 01:58:31;;;;;;;;;;;10.30;99.90;;;;;;5123729;28;19911;-65
2023/03/24 02:00:57;;;;;;;;;;;10.20;99.90;;;;;;5129762;27;19912;-64
2023/03/24 02:03:24;;;;;;;;;;;10.20;99.90;;;;;;5125179;27;19912;-64
2023/03/24 02:05:52;;;;;;;;;;;10.10;99.90;;;;;;5128472;27;20056;-64
2023/03/24 02:08:18;;;;;;;;;;;10.20;99.90;;;;;;5131227;27;19918;-64
2023/03/24 02:10:43;;;;;;;;;;;10.10;99.90;;;;;;5136289;27;19911;-65
2023/03/24 02:13:10;;;;;;;;;;;10.10;99.90;;;;;;5132613;27;19971;-65
2023/03/24 02:16:01;;;;;;;;;;;10.10;99.90;;;;;;5137243;27;20362;-63
2023/03/24 02:18:36;;;;;;;;;;;10.10;99.90;;;;;;5122290;27;19916;-64
2023/03/24 02:21:22;;;;;;;;;;;10.20;99.90;;;;;;5131059;27;19954;-64
2023/03/24 02:24:11;;;;;;;;;;;10.30;99.90;;;;;;5102953;28;20391;-64
2023/03/24 02:26:37;;;;;;;;;;;10.20;99.90;;;;;;5124998;27;20057;-64
2023/03/24 02:29:10;;;;;;;;;;;10.20;99.90;;;;;;5131681;27;19911;-65
2023/03/24 02:31:54;;;;;;;;;;;10.20;99.90;;;;;;5136822;27;19911;-65
2023/03/24 02:34:29;;;;;;;;;;;10.20;99.90;;;;;;5125978;27;19912;-65
2023/03/24 02:37:20;;;;;;;;;;;10.20;99.90;;;;;;5127564;27;19919;-65
2023/03/24 02:39:50;;;;;;;;;;;10.10;99.90;;;;;;5136408;27;20349;-66
2023/03/24 02:42:16;;;;;;;;;;;10.10;99.90;;;;;;5133513;27;20003;-65
2023/03/24 02:44:49;;;;;;;;;;;10.10;99.90;;;;;;5132167;27;19955;-65
2023/03/24 02:47:34;;;;;;;;;;;10.00;99.90;;;;;;5125885;27;19988;-65
2023/03/24 02:50:15;;;;;;;;;;;10.00;99.90;;;;;;5131108;27;19912;-66
2023/03/24 02:52:47;;;;;;;;;;;10.00;99.90;;;;;;5134594;27;19916;-65
2023/03/24 02:55:13;;;;;;;;;;;10.00;99.90;;;;;;5121718;27;19934;-64
2023/03/24 02:57:41;;;;;;;;;;;10.00;99.90;;;;;;5128762;27;20359;-65
2023/03/24 03:00:18;;;;;;;;;;;9.90;99.90;;;;;;5124515;27;19911;-65
2023/03/24 03:02:45;;;;;;;;;;;10.00;99.90;;;;;;5122543;27;19937;-66
2023/03/24 03:05:18;;;;;;;;;;;10.10;99.90;;;;;;5103362;27;19918;-65
2023/03/24 03:07:44;;;;;;;;;;;10.20;99.90;;;;;;5123778;27;19912;-66
2023/03/24 03:10:22;;;;;;;;;;;10.30;99.90;;;;;;5112082;27;20299;-63
2023/03/24 03:12:50;;;;;;;;;;;10.30;99.90;;;;;;5127857;27;20366;-66
2023/03/24 03:15:19;;;;;;;;;;;10.30;99.90;;;;;;5131682;27;20420;-65
2023/03/24 03:17:51;;;;;;;;;;;10.30;99.90;;;;;;5128006;27;20367;-66
2023/03/24 03:20:20;;;;;;;;;;;10.10;99.90;;;;;;5126864;27;19919;-65
2023/03/24 03:22:50;;;;;;;;;;;10.00;99.90;;;;;;5131712;27;20370;-65
2023/03/24 03:25:21;;;;;;;;;;;9.90;99.90;;;;;;5120795;27;19934;-65
2023/03/24 03:27:47;;;;;;;;;;;9.70;99.90;;;;;;5127626;27;19912;-65
2023/03/24 03:30:17;;;;;;;;;;;9.60;99.90;;;;;;5122949;27;19917;-66
2023/03/24 03:32:54;;;;;;;;;;;9.60;99.90;;;;;;5132936;27;20359;-66
2023/03/24 03:35:29;;;;;;;;;;;9.50;99.90;;;;;;5122630;27;19920;-66
2023/03/24 03:37:59;;;;;;;;;;;9.50;99.90;;;;;;5102349;27;19960;-65
2023/03/24 03:40:43;;;;;;;;;;;9.40;99.90;;;;;;5132127;27;19911;-66
2023/03/24 03:43:09;;;;;;;;;;;9.40;99.90;;;;;;5112916;27;20350;-66
2023/03/24 03:45:34;;;;;;;;;;;9.30;99.90;;;;;;5131152;27;19912;-65
2023/03/24 03:48:00;;;;;;;;;;;9.40;99.90;;;;;;5129310;27;19957;-66
2023/03/24 03:50:26;;;;;;;;;;;9.40;99.90;;;;;;5122023;27;20085;-65
2023/03/24 03:52:52;;;;;;;;;;;9.40;99.90;;;;;;5128893;27;19950;-64
2023/03/24 03:55:18;;;;;;;;;;;9.40;99.90;;;;;;5125809;27;19927;-65
2023/03/24 03:57:44;;;;;;;;;;;9.30;99.90;;;;;;5123720;27;19912;-65
2023/03/24 04:00:18;;;;;;;;;;;9.30;99.90;;;;;;5124927;27;19915;-66
2023/03/24 04:03:05;;;;;;;;;;;9.30;99.90;;;;;;5126748;27;19912;-65
2023/03/24 04:05:30;;;;;;;;;;;9.30;99.90;;;;;;5125654;27;19912;-65
2023/03/24 04:08:06;;;;;;;;;;;9.40;99.90;;;;;;5125014;27;20413;-65
2023/03/24 04:10:46;;;;;;;;;;;9.30;99.90;;;;;;5121189;27;19961;-64
2023/03/24 04:13:18;;;;;;;;;;;9.50;99.90;;;;;;5116342;27;20389;-65
2023/03/24 04:15:47;;;;;;;;;;;9.40;99.90;;;;;;5124428;27;19962;-64
2023/03/24 04:18:18;;;;;;;;;;;9.40;99.90;;;;;;5125103;27;19919;-64
2023/03/24 04:20:45;;;;;;;;;;;9.30;99.90;;;;;;5126302;27;19957;-64
2023/03/24 04:23:25;;;;;;;;;;;9.40;99.90;;;;;;5119477;27;19984;-65
2023/03/24 04:25:57;;;;;;;;;;;9.50;99.90;;;;;;5122603;27;20006;-64
2023/03/24 04:28:25;;;;;;;;;;;9.50;99.90;;;;;;5119727;27;19912;-65
2023/03/24 04:31:06;;;;;;;;;;;9.50;99.90;;;;;;5111929;27;19920;-64
2023/03/24 04:33:37;;;;;;;;;;;9.60;99.90;;;;;;5126678;27;19916;-65
2023/03/24 04:36:17;;;;;;;;;;;9.60;99.90;;;;;;5119217;27;20387;-66
2023/03/24 04:38:52;;;;;;;;;;;9.60;99.90;;;;;;5131039;27;20030;-65
2023/03/24 04:41:19;;;;;;;;;;;9.70;99.90;;;;;;5122759;27;19912;-65
2023/03/24 04:43:46;;;;;;;;;;;9.80;99.90;;;;;;5123305;27;19919;-65
2023/03/24 04:46:16;;;;;;;;;;;9.90;99.90;;;;;;5130720;27;19973;-65
2023/03/24 04:48:47;;;;;;;;;;;10.00;99.90;;;;;;5127977;27;19915;-65
2023/03/24 04:51:14;;;;;;;;;;;10.10;99.90;;;;;;5127719;27;19912;-65
2023/03/24 04:53:39;;;;;;;;;;;10.20;99.90;;;;;;5122708;27;20101;-65
2023/03/24 04:56:17;;;;;;;;;;;10.20;99.90;;;;;;5125683;27;20015;-65
2023/03/24 04:58:43;;;;;;;;;;;10.20;99.90;;;;;;5130562;27;20010;-64
2023/03/24 05:01:08;;;;;;;;;;;10.20;99.90;;;;;;5114922;27;20002;-65
2023/03/24 05:03:36;;;;;;;;;;;10.20;99.90;;;;;;5126993;27;19954;-65
2023/03/24 05:06:04;;;;;;;;;;;10.20;99.90;;;;;;5126396;27;19919;-66
2023/03/24 05:08:30;;;;;;;;;;;10.20;99.90;;;;;;5124003;27;20371;-65
2023/03/24 05:10:56;;;;;;;;;;;10.20;99.90;;;;;;5118432;27;20010;-66
2023/03/24 05:13:21;;;;;;;;;;;10.20;99.90;;;;;;5127663;27;19922;-66
2023/03/24 05:15:47;;;;;;;;;;;10.20;99.90;;;;;;5122092;27;19966;-64
2023/03/24 05:18:12;;;;;;;;;;;10.10;99.90;;;;;;5127111;27;19911;-65
2023/03/24 05:20:38;;;;;;;;;;;10.20;99.90;;;;;;5127845;27;19911;-65
2023/03/24 05:23:04;;;;;;;;;;;10.20;99.90;;;;;;5126675;27;19918;-64
2023/03/24 05:25:30;;;;;;;;;;;10.20;99.90;;;;;;5128183;27;20040;-65
2023/03/24 05:27:55;;;;;;;;;;;10.30;99.90;;;;;;5114049;27;19949;-65
2023/03/24 05:30:21;;;;;;;;;;;10.30;99.90;;;;;;5127381;27;20272;-65
2023/03/24 05:32:47;;;;;;;;;;;10.30;99.90;;;;;;5128685;28;19915;-66
2023/03/24 05:35:12;;;;;;;;;;;10.40;99.90;;;;;;5129229;27;20003;-65
2023/03/24 05:37:38;;;;;;;;;;;10.40;99.90;;;;;;5122492;28;19919;-65
2023/03/24 05:40:04;;;;;;;;;;;10.30;99.90;;;;;;5126677;28;19911;-65
2023/03/24 05:42:30;;;;;;;;;;;10.40;99.90;;;;;;5125447;27;19912;-65
2023/03/24 05:44:55;;;;;;;;;;;10.50;99.90;;;;;;5127349;27;19926;-63
2023/03/24 05:47:21;;;;;;;;;;;10.50;99.90;;;;;;5133124;27;20274;-65
2023/03/24 05:49:46;;;;;;;;;;;10.40;99.90;;;;;;5137161;27;19911;-64
2023/03/24 05:52:15;;;;;;;;;;;10.30;99.90;;;;;;5133260;27;20267;-64
2023/03/24 05:54:41;;;;;;;;;;;10.30;99.90;;;;;;5121909;28;20351;-65
2023/03/24 05:57:10;;;;;;;;;;;10.20;99.90;;;;;;5130152;27;20010;-64
2023/03/24 05:59:36;;;;;;;;;;;10.20;99.90;;;;;;5130090;27;19911;-65
2023/03/24 06:02:02;;;;;;;;;;;10.20;99.90;;;;;;5128048;27;19915;-65
2023/03/24 06:04:29;;;;;;;;;;;10.10;99.90;;;;;;5137671;27;20378;-64
2023/03/24 06:06:57;;;;;;;;;;;10.20;99.90;;;;;;5138416;27;19911;-65
2023/03/24 06:09:24;;;;;;;;;;;10.20;99.90;;;;;;5138487;27;20006;-66
2023/03/24 06:11:56;;;;;;;;;;;10.10;99.90;;;;;;5136411;27;19930;-66
2023/03/24 06:14:21;;;;;;;;;;;10.00;99.90;;;;;;5131871;27;19937;-66
2023/03/24 06:16:48;;;;;;;;;;;10.00;99.90;;;;;;5139244;27;20402;-65
2023/03/24 06:19:15;;;;;;;;;;;10.00;99.90;;;;;;5133979;27;19912;-65
2023/03/24 06:21:41;;;;;;;;;;;10.00;99.90;;;;;;5150834;27;19912;-65
2023/03/24 06:24:06;;;;;;;;;;;10.00;99.90;;;;;;5139487;27;19911;-66
2023/03/24 06:26:32;;;;;;;;;;;10.10;99.90;;;;;;5133828;27;19911;-65
2023/03/24 06:28:58;;;;;;;;;;;10.20;99.90;;;;;;5132720;27;19918;-65
2023/03/24 06:31:26;;;;;;;;;;;10.20;99.90;;;;;;5144942;27;19918;-65
2023/03/24 06:33:52;;;;;;;;;;;10.30;99.90;;;;;;5133238;27;19921;-65
2023/03/24 06:36:18;;;;;;;;;;;10.30;99.90;;;;;;5133567;27;19919;-65
2023/03/24 06:38:44;;;;;;;;;;;10.30;99.90;;;;;;5133668;27;19955;-65
2023/03/24 06:41:10;;;;;;;;;;;10.20;99.90;;;;;;5130474;27;20351;-65
2023/03/24 06:43:35;;;;;;;;;;;10.20;99.90;;;;;;5137133;27;19980;-66
2023/03/24 06:46:01;;;;;;;;;;;10.20;99.90;;;;;;5135741;27;19915;-66
2023/03/24 06:48:27;;;;;;;;;;;10.30;99.90;;;;;;5133943;27;19918;-65
2023/03/24 06:50:53;;;;;;;;;;;10.30;99.90;;;;;;5128743;27;19911;-66
2023/03/24 06:53:20;;;;;;;;;;;10.30;99.90;;;;;;5132388;27;19912;-66
2023/03/24 06:55:47;;;;;;;;;;;10.30;99.90;;;;;;5131268;27;19920;-66
2023/03/24 06:58:13;;;;;;;;;;;10.20;99.90;;;;;;5122074;27;19919;-66
2023/03/24 07:00:40;;;;;;;;;;;10.20;99.90;;;;;;5138307;27;20071;-65
2023/03/24 07:03:06;;;;;;;;;;;10.40;99.90;;;;;;5131993;27;20010;-66
2023/03/24 07:05:37;;;;;;;;;;;10.40;99.90;;;;;;5132170;27;19916;-65
2023/03/24 07:08:03;;;;;;;;;;;10.40;99.90;;;;;;5131954;27;19922;-65
2023/03/24 07:10:28;;;;;;;;;;;10.50;99.90;;;;;;5133616;27;19912;-65
2023/03/24 07:12:54;;;;;;;;;;;10.40;99.90;;;;;;5127663;27;19912;-65
2023/03/24 07:15:19;;;;;;;;;;;10.40;99.90;;;;;;5131164;27;19933;-65
2023/03/24 07:17:45;;;;;;;;;;;10.40;99.90;;;;;;5135622;27;20377;-65
2023/03/24 07:20:11;;;;;;;;;;;10.50;99.90;;;;;;5132037;27;19911;-65
2023/03/24 07:22:36;;;;;;;;;;;10.50;99.90;;;;;;5132103;27;20349;-65
2023/03/24 07:25:03;;;;;;;;;;;10.60;99.90;;;;;;5117303;27;19911;-67
2023/03/24 07:27:31;;;;;;;;;;;10.70;99.90;;;;;;5137126;27;19915;-65
2023/03/24 07:29:57;;;;;;;;;;;10.80;99.90;;;;;;5129092;27;19915;-65
2023/03/24 07:32:23;;;;;;;;;;;10.90;99.90;;;;;;5118030;27;19958;-64
2023/03/24 07:34:49;;;;;;;;;;;10.80;99.90;;;;;;5112134;27;19950;-65
2023/03/24 07:37:15;;;;;;;;;;;10.80;99.90;;;;;;5134528;27;20006;-65
2023/03/24 07:39:41;;;;;;;;;;;10.80;99.90;;;;;;5132149;27;19954;-65
2023/03/24 07:42:06;;;;;;;;;;;10.80;99.90;;;;;;5134691;27;19964;-64
2023/03/24 07:44:32;;;;;;;;;;;10.90;99.90;;;;;;5129630;27;19924;-66
2023/03/24 07:46:57;;;;;;;;;;;11.00;99.90;;;;;;5120012;27;20255;-65
2023/03/24 07:49:23;;;;;;;;;;;11.10;99.90;;;;;;5129367;27;19964;-65
2023/03/24 07:51:49;;;;;;;;;;;11.20;99.90;;;;;;5116329;27;19919;-65
2023/03/24 07:54:14;;;;;;;;;;;11.20;99.90;;;;;;5118529;27;20270;-65
2023/03/24 07:56:40;;;;;;;;;;;11.20;99.90;;;;;;5126425;27;19919;-66
2023/03/24 07:59:08;;;;;;;;;;;11.30;99.90;;;;;;5126144;27;19911;-64
2023/03/24 08:01:35;;;;;;;;;;;11.30;99.90;;;;;;5126011;27;20386;-65
2023/03/24 08:04:01;;;;;;;;;;;11.30;99.90;;;;;;5121660;27;19911;-66
2023/03/24 08:06:28;;;;;;;;;;;11.30;99.90;;;;;;5127091;27;19921;-65
2023/03/24 08:08:54;;;;;;;;;;;11.30;99.90;;;;;;5121969;27;19923;-66
2023/03/24 08:11:19;;;;;;;;;;;11.40;99.90;;;;;;5117176;27;19911;-65
2023/03/24 08:13:45;;;;;;;;;;;11.60;99.90;;;;;;5103989;27;19972;-67
2023/03/24 08:16:10;;;;;;;;;;;11.90;99.90;;;;;;5125344;27;20287;-65
2023/03/24 08:18:36;;;;;;;;;;;11.90;99.90;;;;;;5127120;27;19919;-65
2023/03/24 08:21:02;;;;;;;;;;;11.90;99.90;;;;;;5128366;27;19930;-65
2023/03/24 08:23:37;;;;;;;;;;;11.80;99.90;;;;;;5119127;27;19912;-65
2023/03/24 08:26:02;;;;;;;;;;;11.60;99.90;;;;;;5108937;27;19919;-63
2023/03/24 08:28:28;;;;;;;;;;;11.60;99.90;;;;;;5121237;27;19972;-65
2023/03/24 08:30:53;;;;;;;;;;;11.60;99.90;;;;;;5123246;27;19911;-66
2023/03/24 08:33:19;;;;;;;;;;;11.60;99.90;;;;;;5121035;27;19915;-65
2023/03/24 08:35:45;;;;;;;;;;;11.50;99.90;;;;;;5121198;27;19922;-66
2023/03/24 08:38:10;;;;;;;;;;;11.60;99.90;;;;;;5123022;27;19954;-66
2023/03/24 08:40:37;;;;;;;;;;;11.60;99.90;;;;;;5121868;27;20371;-66
2023/03/24 08:43:09;;;;;;;;;;;11.70;99.90;;;;;;5111679;27;19919;-65
2023/03/24 08:45:35;;;;;;;;;;;11.60;99.90;;;;;;5107317;27;20286;-65
2023/03/24 08:48:02;;;;;;;;;;;11.60;99.90;;;;;;5116279;27;19912;-66
2023/03/24 08:50:31;;;;;;;;;;;11.60;99.90;;;;;;5126922;27;19911;-67
2023/03/24 08:52:56;;;;;;;;;;;11.50;99.90;;;;;;5099185;28;19911;-66
2023/03/24 08:55:22;;;;;;;;;;;11.40;99.90;;;;;;5128923;27;20393;-66
2023/03/24 08:57:48;;;;;;;;;;;11.40;99.90;;;;;;5117801;27;19915;-66
2023/03/24 09:00:14;;;;;;;;;;;11.30;99.90;;;;;;5116858;27;19912;-66
2023/03/24 09:02:44;;;;;;;;;;;11.10;99.90;;;;;;5124342;27;19911;-66
2023/03/24 09:05:10;;;;;;;;;;;11.10;99.90;;;;;;5126716;27;19911;-66
2023/03/24 09:07:36;;;;;;;;;;;11.00;99.90;;;;;;5118314;27;19930;-65
2023/03/24 09:10:01;;;;;;;;;;;11.00;99.90;;;;;;5124634;27;20286;-66
2023/03/24 09:12:27;;;;;;;;;;;11.00;99.90;;;;;;5125645;27;19911;-67
2023/03/24 09:14:53;;;;;;;;;;;11.00;99.90;;;;;;5122103;27;20013;-66
2023/03/24 09:17:18;;;;;;;;;;;11.10;99.90;;;;;;5119635;27;20357;-66
2023/03/24 09:19:44;;;;;;;;;;;11.20;99.90;;;;;;5098447;28;19946;-66
2023/03/24 09:22:10;;;;;;;;;;;11.20;99.90;;;;;;5120473;27;20373;-66
2023/03/24 09:24:36;;;;;;;;;;;11.30;99.90;;;;;;5129136;27;19919;-66
2023/03/24 09:27:02;;;;;;;;;;;11.30;99.90;;;;;;5127223;27;19912;-65
2023/03/24 09:29:28;;;;;;;;;;;11.70;99.90;;;;;;5117405;27;19964;-65
2023/03/24 09:31:55;;;;;;;;;;;11.90;99.90;;;;;;5122808;27;19934;-68
2023/03/24 09:34:21;;;;;;;;;;;12.10;99.90;;;;;;5125871;27;19911;-66
2023/03/24 09:36:47;;;;;;;;;;;12.30;99.90;;;;;;5122919;27;19927;-66
2023/03/24 09:39:13;;;;;;;;;;;12.30;99.90;;;;;;5129827;27;19935;-66
2023/03/24 09:41:38;;;;;;;;;;;12.20;99.90;;;;;;5129484;28;19911;-65
2023/03/24 09:44:10;;;;;;;;;;;12.20;99.90;;;;;;5116729;28;20297;-67
2023/03/24 09:46:47;;;;;;;;;;;12.20;99.90;;;;;;5120064;27;19962;-66
2023/03/24 09:49:15;;;;;;;;;;;12.30;99.90;;;;;;5124980;27;19957;-66
2023/03/24 09:51:45;;;;;;;;;;;12.20;99.90;;;;;;5122049;27;19912;-66
2023/03/24 09:54:10;;;;;;;;;;;12.30;99.90;;;;;;5124590;27;20433;-65
2023/03/24 09:56:38;;;;;;;;;;;12.50;99.90;;;;;;5130533;27;19920;-67
2023/03/24 09:59:12;;;;;;;;;;;12.40;99.90;;;;;;5130475;27;19922;-66
2023/03/24 10:01:38;;;;;;;;;;;12.40;99.90;;;;;;5130900;27;19911;-66
2023/03/24 10:04:09;;;;;;;;;;;12.30;99.90;;;;;;5124097;27;20018;-66
2023/03/24 10:06:38;;;;;;;;;;;12.20;99.90;;;;;;5125185;27;20267;-66
2023/03/24 10:09:04;;;;;;;;;;;12.10;99.90;;;;;;5135489;27;19911;-66
2023/03/24 10:11:30;;;;;;;;;;;12.10;99.90;;;;;;5126829;27;19986;-67
2023/03/24 10:14:11;;;;;;;;;;;12.40;99.90;;;;;;5121301;27;20377;-66
2023/03/24 10:16:44;;;;;;;;;;;12.60;99.90;;;;;;5128914;27;19942;-65
2023/03/24 10:19:12;;;;;;;;;;;12.50;99.90;;;;;;5117610;27;19968;-67
2023/03/24 10:21:39;;;;;;;;;;;12.70;99.90;;;;;;5127310;27;20428;-65
2023/03/24 10:24:13;;;;;;;;;;;12.70;99.90;;;;;;5116206;27;20049;-66
2023/03/24 10:26:45;;;;;;;;;;;12.60;99.90;;;;;;5129390;27;20370;-66
2023/03/24 10:29:10;;;;;;;;;;;12.50;99.90;;;;;;5130483;27;19923;-66
2023/03/24 10:31:37;;;;;;;;;;;12.50;99.90;;;;;;5124247;27;19911;-66
2023/03/24 10:34:03;;;;;;;;;;;12.40;99.90;;;;;;5125287;27;20075;-66
2023/03/24 10:36:29;;;;;;;;;;;12.60;99.90;;;;;;5129467;27;20014;-66
2023/03/24 10:38:55;;;;;;;;;;;12.70;99.90;;;;;;5125636;27;19912;-65
2023/03/24 10:41:26;;;;;;;;;;;12.70;99.90;;;;;;5131319;27;19912;-67
2023/03/24 10:43:53;;;;;;;;;;;12.80;99.90;;;;;;5127596;27;19950;-66
2023/03/24 10:46:25;;;;;;;;;;;13.00;99.90;;;;;;5124960;27;19918;-66
2023/03/24 10:48:53;;;;;;;;;;;12.90;99.90;;;;;;5124398;27;19911;-65
2023/03/24 10:51:18;;;;;;;;;;;12.80;99.90;;;;;;5132516;27;19919;-66
2023/03/24 10:53:47;;;;;;;;;;;13.00;99.90;;;;;;5127756;27;19912;-66
2023/03/24 10:56:16;;;;;;;;;;;13.00;99.90;;;;;;5125956;27;20014;-66
2023/03/24 10:58:42;;;;;;;;;;;13.10;99.90;;;;;;5122454;27;19919;-66
2023/03/24 11:01:19;;;;;;;;;;;13.00;99.90;;;;;;5121508;27;19911;-67
2023/03/24 11:03:46;;;;;;;;;;;13.00;99.90;;;;;;5126190;27;19968;-65
2023/03/24 11:06:15;;;;;;;;;;;13.10;99.90;;;;;;5129479;27;19917;-66
2023/03/24 11:08:41;;;;;;;;;;;13.10;99.90;;;;;;5118802;27;20323;-66
2023/03/24 11:11:27;;;;;;;;;;;13.10;99.90;;;;;;5124672;27;19941;-66
2023/03/24 11:13:55;;;;;;;;;;;13.00;99.90;;;;;;5121366;27;19922;-66
2023/03/24 11:16:25;;;;;;;;;;;13.20;99.90;;;;;;5126494;27;19915;-67
2023/03/24 11:18:58;;;;;;;;;;;13.20;99.90;;;;;;5123039;27;20393;-66
2023/03/24 11:21:26;;;;;;;;;;;13.30;99.90;;;;;;5124189;27;19950;-66
2023/03/24 11:23:51;;;;;;;;;;;13.40;99.90;;;;;;5116643;27;19915;-66
2023/03/24 11:26:18;;;;;;;;;;;13.60;99.90;;;;;;5128630;27;19912;-66
2023/03/24 11:28:46;;;;;;;;;;;13.50;99.90;;;;;;5128745;27;20281;-66
2023/03/24 11:31:17;;;;;;;;;;;13.70;99.90;;;;;;5121257;27;19934;-66
2023/03/24 11:33:50;;;;;;;;;;;13.50;99.90;;;;;;5122893;27;20421;-67
2023/03/24 11:36:37;;;;;;;;;;;13.70;99.90;;;;;;5122451;27;19966;-66
2023/03/24 11:39:12;;;;;;;;;;;13.60;99.90;;;;;;5101662;27;19915;-66
2023/03/24 11:41:39;;;;;;;;;;;13.50;99.90;;;;;;5131647;27;19915;-66
2023/03/24 11:44:13;;;;;;;;;;;13.70;99.90;;;;;;5119144;27;19934;-66
2023/03/24 11:46:40;;;;;;;;;;;13.80;99.90;;;;;;5121073;27;19918;-66
2023/03/24 11:49:07;;;;;;;;;;;14.00;99.90;;;;;;5125442;27;19945;-65
2023/03/24 11:51:35;;;;;;;;;;;14.00;99.90;;;;;;5132044;27;19979;-66
2023/03/24 11:54:02;;;;;;;;;;;13.90;99.90;;;;;;5122689;27;20398;-67
2023/03/24 11:56:38;;;;;;;;;;;14.10;99.90;;;;;;5128689;27;19927;-66
2023/03/24 11:59:06;;;;;;;;;;;14.20;99.90;;;;;;5119567;27;20393;-67
2023/03/24 12:01:36;;;;;;;;;;;14.30;99.90;;;;;;5133411;27;19912;-66
2023/03/24 12:04:21;;;;;;;;;;;14.30;99.90;;;;;;5123665;27;19992;-67
2023/03/24 12:07:06;;;;;;;;;;;14.10;99.90;;;;;;5122491;27;21001;-66
2023/03/24 12:09:47;;;;;;;;;;;13.90;99.90;;;;;;5122440;27;20455;-66
2023/03/24 12:12:13;;;;;;;;;;;14.00;99.90;;;;;;5117083;27;20282;-66
2023/03/24 12:14:47;;;;;;;;;;;13.90;99.90;;;;;;5131523;27;19918;-67
2023/03/24 12:17:15;;;;;;;;;;;14.20;99.90;;;;;;5121831;27;19923;-67
2023/03/24 12:19:40;;;;;;;;;;;14.20;99.90;;;;;;5120136;27;20355;-67
2023/03/24 12:22:06;;;;;;;;;;;14.20;99.90;;;;;;5118210;27;19968;-67
2023/03/24 12:24:47;;;;;;;;;;;14.40;99.90;;;;;;5120663;27;19965;-67
2023/03/24 12:27:36;;;;;;;;;;;14.10;99.90;;;;;;5101699;27;19918;-66
2023/03/24 12:30:14;;;;;;;;;;;14.20;99.90;;;;;;5051347;28;19944;-66
2023/03/24 12:32:40;;;;;;;;;;;14.00;99.90;;;;;;5060449;28;20326;-66
2023/03/24 12:35:15;;;;;;;;;;;14.10;99.90;;;;;;5039915;28;19967;-67
2023/03/24 12:37:55;;;;;;;;;;;14.50;99.90;;;;;;5063181;28;19927;-67
2023/03/24 12:40:36;;;;;;;;;;;14.90;99.90;;;;;;5062006;28;19917;-67
2023/03/24 12:43:20;;;;;;;;;;;15.00;99.90;;;;;;5043835;28;20004;-68
2023/03/24 12:45:48;;;;;;;;;;;14.80;99.90;;;;;;5054096;28;19921;-66
2023/03/24 12:48:23;;;;;;;;;;;14.30;99.90;;;;;;5041257;28;19978;-67
2023/03/24 12:50:48;;;;;;;;;;;14.40;99.90;;;;;;5063202;28;19917;-67
2023/03/24 12:53:23;;;;;;;;;;;14.60;99.90;;;;;;5061662;28;19916;-66
2023/03/24 12:55:55;;;;;;;;;;;14.70;99.90;;;;;;5057048;28;19939;-67
2023/03/24 12:58:27;;;;;;;;;;;15.10;99.90;;;;;;5043299;28;19913;-67
2023/03/24 13:01:28;;;;;;;;;;;15.30;99.90;;;;;;5056525;28;19920;-68
2023/03/24 13:03:57;;;;;;;;;;;15.30;99.90;;;;;;5025106;28;19947;-66
2023/03/24 13:06:27;;;;;;;;;;;15.50;99.90;;;;;;5074503;27;19926;-66
2023/03/24 13:09:04;;;;;;;;;;;15.30;99.90;;;;;;5126565;27;20420;-66
2023/03/24 13:11:35;;;;;;;;;;;15.10;99.90;;;;;;5130966;27;20382;-67
2023/03/24 13:14:02;;;;;;;;;;;15.20;99.90;;;;;;5134770;27;19926;-67
2023/03/24 13:16:29;;;;;;;;;;;15.50;99.90;;;;;;5121739;27;19971;-66
2023/03/24 13:18:58;;;;;;;;;;;15.80;99.90;;;;;;5142919;27;20350;-67
2023/03/24 13:21:25;;;;;;;;;;;15.70;99.90;;;;;;5124669;27;19919;-67
2023/03/24 13:23:56;;;;;;;;;;;15.80;99.90;;;;;;5124902;27;19911;-66
2023/03/24 13:26:25;;;;;;;;;;;15.80;99.90;;;;;;5119846;27;20323;-67
2023/03/24 13:28:51;;;;;;;;;;;15.60;99.90;;;;;;5123542;27;19948;-67
2023/03/24 13:31:17;;;;;;;;;;;15.80;99.90;;;;;;5117739;27;19966;-67
2023/03/24 13:33:43;;;;;;;;;;;16.00;99.90;;;;;;5121232;27;19911;-67
2023/03/24 13:36:28;;;;;;;;;;;15.90;99.90;;;;;;5120210;28;19931;-66
2023/03/24 13:38:55;;;;;;;;;;;16.00;99.90;;;;;;5123878;27;19915;-67
2023/03/24 13:41:31;;;;;;;;;;;15.50;99.90;;;;;;5130224;28;19916;-68
2023/03/24 13:44:01;;;;;;;;;;;15.30;99.90;;;;;;5128045;28;19971;-68
2023/03/24 13:46:27;;;;;;;;;;;15.50;99.90;;;;;;5123059;27;19998;-67
2023/03/24 13:48:56;;;;;;;;;;;15.50;99.90;;;;;;5120738;28;19920;-69
2023/03/24 13:51:32;;;;;;;;;;;16.10;99.90;;;;;;5119494;27;19912;-67
2023/03/24 13:54:10;;;;;;;;;;;16.00;99.90;;;;;;5119607;28;20382;-66
2023/03/24 13:56:38;;;;;;;;;;;16.00;99.90;;;;;;5126728;27;19919;-67
2023/03/24 13:59:06;;;;;;;;;;;15.80;99.90;;;;;;5122295;27;19986;-67
2023/03/24 14:01:41;;;;;;;;;;;15.70;99.90;;;;;;5097585;28;20014;-66
2023/03/24 14:04:41;;;;;;;;;;;15.80;99.90;;;;;;5118554;27;20248;-68
2023/03/24 14:07:26;;;;;;;;;;;15.30;99.90;;;;;;5116672;28;19912;-67
2023/03/24 14:10:10;;;;;;;;;;;15.50;99.90;;;;;;5122304;28;20016;-67
2023/03/24 14:12:50;;;;;;;;;;;16.10;99.90;;;;;;5121344;27;19920;-66
2023/03/24 14:15:35;;;;;;;;;;;16.10;99.90;;;;;;5126274;27;19915;-65
2023/03/24 14:18:31;;;;;;;;;;;15.80;99.90;;;;;;5099902;27;19974;-67
2023/03/24 14:20:56;;;;;;;;;;;16.10;99.90;;;;;;5098747;27;19923;-68
2023/03/24 14:23:41;;;;;;;;;;;16.20;99.90;;;;;;5118007;27;20278;-67
2023/03/24 14:26:07;;;;;;;;;;;16.40;99.90;;;;;;5124390;27;19912;-66
2023/03/24 14:28:40;;;;;;;;;;;15.80;99.90;;;;;;5121099;28;20426;-67
2023/03/24 14:31:14;;;;;;;;;;;16.30;99.90;;;;;;5119404;27;20367;-66